createdAt,value
2018-02-01T00:00:32.866Z,70.50
2018-02-01T00:02:59.863Z,70.40
2018-02-01T00:05:27.618Z,70.40
2018-02-01T00:07:53.961Z,70.30
2018-02-01T00:10:20.286Z,70.20
2018-02-01T00:12:46.647Z,70.30
2018-02-01T00:15:13.420Z,70.40
2018-02-01T00:17:40.283Z,70.40
2018-02-01T00:20:06.540Z,70.40
2018-02-01T00:22:33.263Z,70.50
2018-02-01T00:24:59.518Z,71.60
2018-02-01T00:27:27.169Z,70.40
2018-02-01T00:29:54.622Z,70.40
2018-02-01T00:32:21.681Z,70.70
2018-02-01T00:34:48.678Z,69.50
2018-02-01T00:37:14.977Z,70.90
2018-02-01T00:39:41.998Z,70.20
2018-02-01T00:42:08.874Z,70.10
2018-02-01T00:44:35.878Z,70.20
2018-02-01T00:47:02.156Z,70.10
2018-02-01T00:49:28.914Z,70.10
2018-02-01T00:51:56.462Z,70.40
2018-02-01T00:54:22.802Z,70.40
2018-02-01T00:56:49.801Z,71.20
2018-02-01T00:59:16.726Z,70.80
2018-02-01T01:01:43.010Z,71.00
2018-02-01T01:04:09.279Z,71.10
2018-02-01T01:06:36.297Z,71.60
2018-02-01T01:09:02.614Z,71.50
2018-02-01T01:11:28.973Z,71.30
2018-02-01T01:13:55.955Z,71.60
2018-02-01T01:16:23.618Z,71.60
2018-02-01T01:18:50.936Z,71.50
2018-02-01T01:21:17.190Z,71.50
2018-02-01T01:23:43.842Z,71.60
2018-02-01T01:26:11.335Z,71.60
2018-02-01T01:28:37.974Z,71.60
2018-02-01T01:31:04.960Z,71.50
2018-02-01T01:33:31.200Z,71.50
2018-02-01T01:35:57.488Z,71.50
2018-02-01T01:38:24.542Z,71.60
2018-02-01T01:40:51.635Z,71.60
2018-02-01T01:43:18.635Z,71.50
2018-02-01T01:45:57.124Z,71.60
2018-02-01T01:48:24.198Z,71.50
2018-02-01T01:50:50.438Z,71.30
2018-02-01T01:53:16.691Z,71.30
2018-02-01T01:55:43.698Z,71.70
2018-02-01T01:58:09.943Z,71.70
2018-02-01T02:00:39.052Z,72.00
2018-02-01T02:03:05.328Z,72.00
2018-02-01T02:05:31.582Z,72.80
2018-02-01T02:07:57.870Z,73.20
2018-02-01T02:10:24.832Z,72.30
2018-02-01T02:12:52.579Z,72.60
2018-02-01T02:15:19.192Z,72.60
2018-02-01T02:17:46.080Z,72.60
2018-02-01T02:20:13.094Z,72.40
2018-02-01T02:22:39.721Z,72.40
2018-02-01T02:25:06.441Z,72.80
2018-02-01T02:27:32.686Z,72.50
2018-02-01T02:29:59.505Z,72.20
2018-02-01T02:32:26.526Z,72.00
2018-02-01T02:34:52.770Z,72.00
2018-02-01T02:37:19.534Z,72.00
2018-02-01T02:39:46.531Z,71.80
2018-02-01T02:42:13.136Z,71.80
2018-02-01T02:44:40.143Z,72.00
2018-02-01T02:47:06.392Z,72.00
2018-02-01T02:49:33.406Z,71.50
2018-02-01T02:52:00.282Z,71.50
2018-02-01T02:54:26.552Z,71.50
2018-02-01T02:56:53.538Z,71.90
2018-02-01T02:59:20.468Z,71.70
2018-02-01T03:01:46.710Z,71.60
2018-02-01T03:04:13.016Z,71.30
2018-02-01T03:06:39.558Z,71.50
2018-02-01T03:09:06.216Z,71.40
2018-02-01T03:11:34.035Z,71.20
2018-02-01T03:14:00.288Z,71.20
2018-02-01T03:16:28.796Z,70.80
2018-02-01T03:18:56.363Z,71.80
2018-02-01T03:21:23.358Z,70.70
2018-02-01T03:23:50.260Z,70.70
2018-02-01T03:26:17.691Z,71.60
2018-02-01T03:28:43.942Z,70.80
2018-02-01T03:31:10.200Z,70.60
2018-02-01T03:33:37.197Z,69.80
2018-02-01T03:36:03.448Z,69.70
2018-02-01T03:38:29.760Z,70.20
2018-02-01T03:40:56.026Z,69.90
2018-02-01T03:43:24.292Z,69.10
2018-02-01T03:45:50.528Z,69.00
2018-02-01T03:48:16.788Z,69.60
2018-02-01T03:50:43.052Z,70.20
2018-02-01T03:53:09.306Z,71.30
2018-02-01T03:55:35.639Z,71.00
2018-02-01T03:58:02.147Z,70.90
2018-02-01T04:00:29.444Z,71.20
2018-02-01T04:02:55.692Z,71.10
2018-02-01T04:05:21.945Z,71.10
2018-02-01T04:07:48.676Z,71.00
2018-02-01T04:10:16.068Z,71.10
2018-02-01T04:12:42.319Z,71.80
2018-02-01T04:15:09.804Z,71.10
2018-02-01T04:17:36.721Z,71.10
2018-02-01T04:20:03.355Z,71.20
2018-02-01T04:22:30.219Z,71.20
2018-02-01T04:24:57.201Z,71.30
2018-02-01T04:27:23.888Z,71.20
2018-02-01T04:29:50.151Z,71.50
2018-02-01T04:32:17.193Z,71.70
2018-02-01T04:34:44.252Z,71.70
2018-02-01T04:37:11.236Z,71.90
2018-02-01T04:39:37.600Z,71.90
2018-02-01T04:42:04.286Z,71.70
2018-02-01T04:44:31.275Z,71.10
2018-02-01T04:46:57.523Z,71.10
2018-02-01T04:49:23.980Z,71.60
2018-02-01T04:51:51.060Z,71.80
2018-02-01T04:54:18.121Z,71.70
2018-02-01T04:56:45.100Z,71.60
2018-02-01T04:59:11.812Z,71.60
2018-02-01T05:01:38.865Z,71.90
2018-02-01T05:04:07.023Z,72.00
2018-02-01T05:06:33.732Z,72.00
2018-02-01T05:09:00.013Z,72.20
2018-02-01T05:11:26.873Z,72.40
2018-02-01T05:13:53.852Z,72.70
2018-02-01T05:16:20.511Z,72.70
2018-02-01T05:18:47.213Z,72.20
2018-02-01T05:21:14.673Z,71.90
2018-02-01T05:23:42.092Z,71.70
2018-02-01T05:26:08.892Z,71.70
2018-02-01T05:28:35.873Z,78.50
2018-02-01T05:31:02.137Z,78.40
2018-02-01T05:33:28.417Z,75.60
2018-02-01T05:35:55.420Z,78.20
2018-02-01T05:38:21.866Z,78.30
2018-02-01T05:40:48.160Z,73.10
2018-02-01T05:43:14.873Z,79.90
2018-02-01T05:45:41.898Z,76.70
2018-02-01T05:48:08.156Z,76.60
2018-02-01T05:50:34.703Z,73.70
2018-02-01T05:53:01.701Z,79.30
2018-02-01T05:55:28.057Z,79.10
2018-02-01T05:57:54.820Z,74.40
2018-02-01T06:00:23.252Z,72.40
2018-02-01T06:02:49.978Z,72.40
2018-02-01T06:05:16.956Z,72.70
2018-02-01T06:07:43.260Z,72.70
2018-02-01T06:10:10.279Z,72.50
2018-02-01T06:12:36.820Z,72.50
2018-02-01T06:15:03.633Z,72.70
2018-02-01T06:17:30.644Z,72.80
2018-02-01T06:19:57.985Z,73.10
2018-02-01T06:22:26.289Z,73.20
2018-02-01T06:24:53.273Z,73.80
2018-02-01T06:27:20.044Z,73.70
2018-02-01T06:29:46.296Z,73.30
2018-02-01T06:32:14.037Z,73.20
2018-02-01T06:34:40.305Z,73.20
2018-02-01T06:37:07.319Z,73.20
2018-02-01T06:39:33.660Z,73.20
2018-02-01T06:42:00.342Z,73.30
2018-02-01T06:44:26.961Z,73.50
2018-02-01T06:46:53.209Z,74.10
2018-02-01T06:49:19.458Z,72.90
2018-02-01T06:51:46.123Z,73.00
2018-02-01T06:54:13.113Z,73.00
2018-02-01T06:56:39.348Z,73.80
2018-02-01T06:59:05.617Z,73.20
2018-02-01T07:01:32.353Z,74.10
2018-02-01T07:03:58.612Z,74.10
2018-02-01T07:06:25.739Z,74.10
2018-02-01T07:08:52.305Z,74.10
2018-02-01T07:11:34.223Z,74.00
2018-02-01T07:14:01.121Z,74.00
2018-02-01T07:16:27.889Z,74.10
2018-02-01T07:18:55.220Z,73.80
2018-02-01T07:21:21.489Z,73.90
2018-02-01T07:23:48.802Z,73.80
2018-02-01T07:26:15.545Z,73.80
2018-02-01T07:28:41.820Z,73.80
2018-02-01T07:31:08.092Z,73.70
2018-02-01T07:33:34.375Z,75.20
2018-02-01T07:36:00.628Z,74.00
2018-02-01T07:38:26.969Z,73.50
2018-02-01T07:40:55.620Z,73.80
2018-02-01T07:43:22.500Z,73.80
2018-02-01T07:45:55.484Z,73.70
2018-02-01T07:48:21.780Z,73.70
2018-02-01T07:50:48.452Z,73.40
2018-02-01T07:53:15.444Z,73.50
2018-02-01T07:55:41.680Z,73.60
2018-02-01T07:58:08.444Z,73.10
2018-02-01T08:00:34.718Z,73.20
2018-02-01T08:03:01.734Z,73.10
2018-02-01T08:05:28.001Z,73.00
2018-02-01T08:07:54.260Z,72.70
2018-02-01T08:10:22.025Z,72.00
2018-02-01T08:12:48.982Z,72.00
2018-02-01T08:15:16.004Z,71.90
2018-02-01T08:17:43.081Z,71.90
2018-02-01T08:20:09.330Z,71.70
2018-02-01T08:22:36.785Z,71.50
2018-02-01T08:25:04.444Z,72.00
2018-02-01T08:27:30.706Z,71.90
2018-02-01T08:29:56.952Z,71.40
2018-02-01T08:32:23.871Z,71.80
2018-02-01T08:34:50.912Z,71.40
2018-02-01T08:37:17.140Z,71.40
2018-02-01T08:39:44.889Z,70.50
2018-02-01T08:42:11.544Z,70.50
2018-02-01T08:44:38.545Z,70.40
2018-02-01T08:47:04.790Z,70.30
2018-02-01T08:49:31.143Z,69.30
2018-02-01T08:51:57.848Z,69.80
2018-02-01T08:54:24.865Z,68.40
2018-02-01T08:56:53.986Z,66.90
2018-02-01T08:59:20.962Z,68.10
2018-02-01T09:01:47.211Z,68.10
2018-02-01T09:04:13.711Z,68.20
2018-02-01T09:06:40.723Z,66.10
2018-02-01T09:09:07.611Z,66.00
2018-02-01T09:11:35.224Z,67.50
2018-02-01T09:14:01.512Z,67.40
2018-02-01T09:16:28.521Z,66.20
2018-02-01T09:18:55.411Z,65.30
2018-02-01T09:21:22.400Z,64.50
2018-02-01T09:23:49.041Z,63.80
2018-02-01T09:26:15.777Z,63.90
2018-02-01T09:28:42.704Z,63.70
2018-02-01T09:31:09.727Z,63.30
2018-02-01T09:33:35.978Z,62.20
2018-02-01T09:36:02.538Z,64.10
2018-02-01T09:38:29.536Z,63.30
2018-02-01T09:40:56.739Z,63.00
2018-02-01T09:43:23.734Z,63.60
2018-02-01T09:45:50.838Z,63.10
2018-02-01T09:48:17.096Z,62.90
2018-02-01T09:50:44.114Z,62.00
2018-02-01T09:53:10.853Z,61.90
2018-02-01T09:55:37.103Z,62.80
2018-02-01T09:58:03.354Z,62.70
2018-02-01T10:00:30.355Z,62.20
2018-02-01T10:02:56.678Z,62.10
2018-02-01T10:05:23.074Z,60.40
2018-02-01T10:07:51.259Z,62.50
2018-02-01T10:10:18.256Z,62.30
2018-02-01T10:12:44.552Z,62.20
2018-02-01T10:15:10.824Z,62.40
2018-02-01T10:17:37.516Z,62.50
2018-02-01T10:20:05.082Z,61.60
2018-02-01T10:22:32.075Z,62.70
2018-02-01T10:24:58.766Z,62.70
2018-02-01T10:27:25.518Z,63.20
2018-02-01T10:29:51.771Z,64.00
2018-02-01T10:32:19.524Z,64.40
2018-02-01T10:34:45.782Z,64.30
2018-02-01T10:37:12.073Z,64.80
2018-02-01T10:39:38.306Z,65.00
2018-02-01T10:42:05.072Z,65.80
2018-02-01T10:44:31.324Z,66.10
2018-02-01T10:46:58.312Z,66.20
2018-02-01T10:49:24.579Z,66.10
2018-02-01T10:51:51.323Z,66.90
2018-02-01T10:54:17.569Z,67.50
2018-02-01T10:56:43.827Z,67.90
2018-02-01T10:59:10.838Z,70.10
2018-02-01T11:01:37.086Z,70.10
2018-02-01T11:04:03.844Z,70.90
2018-02-01T11:06:31.716Z,72.60
2018-02-01T11:08:58.704Z,72.20
2018-02-01T11:11:24.947Z,72.10
2018-02-01T11:13:51.204Z,72.70
2018-02-01T11:16:17.452Z,72.90
2018-02-01T11:18:46.205Z,75.20
2018-02-01T11:21:14.749Z,76.50
2018-02-01T11:23:42.324Z,77.60
2018-02-01T11:26:09.991Z,77.90
2018-02-01T11:28:37.036Z,79.20
2018-02-01T11:31:04.037Z,80.90
2018-02-01T11:33:30.312Z,80.10
2018-02-01T11:35:56.556Z,79.00
2018-02-01T11:38:23.648Z,83.30
2018-02-01T11:40:50.659Z,83.10
2018-02-01T11:43:17.663Z,85.90
2018-02-01T11:45:43.930Z,86.00
2018-02-01T11:48:10.688Z,85.10
2018-02-01T11:50:37.760Z,87.20
2018-02-01T11:53:04.755Z,85.90
2018-02-01T11:55:31.013Z,86.00
2018-02-01T11:57:58.032Z,87.10
2018-02-01T12:00:24.412Z,87.20
2018-02-01T12:03:06.411Z,87.50
2018-02-01T12:05:33.132Z,87.30
2018-02-01T12:07:59.401Z,87.60
2018-02-01T12:10:26.956Z,86.70
2018-02-01T12:12:53.308Z,87.60
2018-02-01T12:15:20.304Z,88.70
2018-02-01T12:17:47.512Z,88.80
2018-02-01T12:20:14.508Z,88.80
2018-02-01T12:22:40.756Z,88.80
2018-02-01T12:25:07.846Z,90.10
2018-02-01T12:27:34.856Z,93.60
2018-02-01T12:30:01.100Z,93.60
2018-02-01T12:32:27.376Z,92.80
2018-02-01T12:34:54.458Z,94.10
2018-02-01T12:37:20.796Z,94.00
2018-02-01T12:39:47.313Z,93.50
2018-02-01T12:42:14.339Z,94.20
2018-02-01T12:44:40.584Z,93.40
2018-02-01T12:47:08.031Z,91.60
2018-02-01T12:49:35.031Z,93.00
2018-02-01T12:52:01.300Z,93.10
2018-02-01T12:54:27.876Z,93.10
2018-02-01T12:56:55.436Z,93.20
2018-02-01T12:59:22.844Z,93.60
2018-02-01T13:01:49.556Z,93.20
2018-02-01T13:04:16.558Z,93.20
2018-02-01T13:06:43.372Z,93.20
2018-02-01T13:09:09.620Z,93.70
2018-02-01T13:11:35.868Z,93.80
2018-02-01T13:14:02.125Z,93.70
2018-02-01T13:16:28.370Z,92.00
2018-02-01T13:18:54.976Z,91.80
2018-02-01T13:21:21.231Z,92.00
2018-02-01T13:23:47.860Z,92.80
2018-02-01T13:26:14.555Z,93.10
2018-02-01T13:28:42.214Z,94.40
2018-02-01T13:31:09.676Z,94.50
2018-02-01T13:33:36.714Z,94.70
2018-02-01T13:36:03.007Z,94.80
2018-02-01T13:38:29.609Z,93.90
2018-02-01T13:40:57.064Z,94.90
2018-02-01T13:43:24.711Z,94.00
2018-02-01T13:45:52.444Z,94.90
2018-02-01T13:48:19.321Z,94.90
2018-02-01T13:50:45.568Z,92.80
2018-02-01T13:53:11.824Z,94.30
2018-02-01T13:55:38.864Z,93.00
2018-02-01T13:58:06.217Z,93.20
2018-02-01T14:00:34.293Z,93.10
2018-02-01T14:03:00.953Z,93.10
2018-02-01T14:05:27.932Z,94.70
2018-02-01T14:07:54.190Z,94.70
2018-02-01T14:10:20.777Z,93.10
2018-02-01T14:12:47.764Z,92.30
2018-02-01T14:15:14.138Z,92.30
2018-02-01T14:17:41.833Z,93.50
2018-02-01T14:20:08.832Z,93.40
2018-02-01T14:22:35.460Z,92.60
2018-02-01T14:25:02.481Z,92.20
2018-02-01T14:27:29.467Z,92.40
2018-02-01T14:29:55.763Z,92.40
2018-02-01T14:32:22.317Z,92.20
2018-02-01T14:34:49.959Z,94.10
2018-02-01T14:37:16.936Z,94.10
2018-02-01T14:39:43.916Z,94.70
2018-02-01T14:42:10.623Z,94.70
2018-02-01T14:44:37.628Z,94.60
2018-02-01T14:47:03.915Z,94.60
2018-02-01T14:49:31.164Z,94.90
2018-02-01T14:51:58.612Z,95.90
2018-02-01T14:54:26.097Z,96.40
2018-02-01T14:56:53.652Z,96.90
2018-02-01T14:59:21.124Z,97.00
2018-02-01T15:01:48.122Z,94.90
2018-02-01T15:04:14.400Z,94.80
2018-02-01T15:06:41.476Z,96.40
2018-02-01T15:09:07.731Z,96.40
2018-02-01T15:11:34.064Z,96.70
2018-02-01T15:14:00.356Z,97.00
2018-02-01T15:16:26.609Z,97.50
2018-02-01T15:18:54.052Z,97.20
2018-02-01T15:21:20.308Z,97.20
2018-02-01T15:23:47.812Z,96.70
2018-02-01T15:26:14.803Z,96.80
2018-02-01T15:28:41.164Z,97.50
2018-02-01T15:31:07.410Z,96.90
2018-02-01T15:33:34.025Z,98.00
2018-02-01T15:36:01.021Z,97.70
2018-02-01T15:38:28.023Z,97.80
2018-02-01T15:40:54.873Z,97.80
2018-02-01T15:43:22.295Z,98.20
2018-02-01T15:45:48.601Z,98.30
2018-02-01T15:48:14.841Z,97.70
2018-02-01T15:50:41.451Z,97.80
2018-02-01T15:53:08.803Z,97.60
2018-02-01T15:55:35.456Z,97.50
2018-02-01T15:58:02.468Z,98.10
2018-02-01T16:00:28.757Z,98.10
2018-02-01T16:02:55.036Z,97.30
2018-02-01T16:05:21.298Z,97.20
2018-02-01T16:07:47.649Z,97.30
2018-02-01T16:10:14.905Z,97.40
2018-02-01T16:12:41.967Z,96.30
2018-02-01T16:15:08.982Z,96.70
2018-02-01T16:17:36.121Z,96.70
2018-02-01T16:20:03.084Z,97.20
2018-02-01T16:22:29.341Z,97.10
2018-02-01T16:24:56.137Z,97.20
2018-02-01T16:27:22.876Z,98.00
2018-02-01T16:29:49.683Z,97.90
2018-02-01T16:32:15.929Z,98.40
2018-02-01T16:34:43.017Z,98.10
2018-02-01T16:37:09.740Z,98.10
2018-02-01T16:39:35.993Z,98.20
2018-02-01T16:42:02.804Z,96.80
2018-02-01T16:44:29.796Z,97.40
2018-02-01T16:46:56.063Z,97.40
2018-02-01T16:49:23.252Z,97.70
2018-02-01T16:51:50.588Z,97.50
2018-02-01T16:54:17.260Z,97.50
2018-02-01T16:56:44.693Z,97.00
2018-02-01T16:59:12.897Z,97.10
2018-02-01T17:01:39.900Z,97.30
2018-02-01T17:04:06.164Z,97.30
2018-02-01T17:06:33.442Z,95.70
2018-02-01T17:09:00.429Z,97.50
2018-02-01T17:11:26.774Z,97.50
2018-02-01T17:13:53.356Z,96.20
2018-02-01T17:16:20.220Z,96.80
2018-02-01T17:18:47.977Z,97.30
2018-02-01T17:21:15.335Z,97.50
2018-02-01T17:23:42.154Z,97.50
2018-02-01T17:26:08.931Z,98.00
2018-02-01T17:28:35.228Z,98.10
2018-02-01T17:31:01.508Z,97.20
2018-02-01T17:33:28.966Z,98.30
2018-02-01T17:35:56.007Z,97.80
2018-02-01T17:38:23.017Z,97.30
2018-02-01T17:40:50.004Z,97.30
2018-02-01T17:43:16.236Z,97.70
2018-02-01T17:45:43.289Z,96.00
2018-02-01T17:48:10.052Z,96.00
2018-02-01T17:50:36.683Z,96.90
2018-02-01T17:53:04.270Z,96.80
2018-02-01T17:55:31.740Z,97.60
2018-02-01T17:57:58.731Z,97.70
2018-02-01T18:00:25.624Z,97.70
2018-02-01T18:02:52.689Z,96.30
2018-02-01T18:05:20.141Z,96.10
2018-02-01T18:07:47.500Z,96.70
2018-02-01T18:10:14.500Z,96.90
2018-02-01T18:12:41.180Z,96.90
2018-02-01T18:15:08.905Z,96.30
2018-02-01T18:17:35.916Z,96.20
2018-02-01T18:20:03.380Z,97.70
2018-02-01T18:22:30.363Z,96.00
2018-02-01T18:24:57.993Z,96.00
2018-02-01T18:27:25.482Z,97.30
2018-02-01T18:29:51.752Z,96.90
2018-02-01T18:32:19.772Z,96.90
2018-02-01T18:34:47.228Z,96.10
2018-02-01T18:37:14.800Z,97.20
2018-02-01T18:39:42.345Z,96.80
2018-02-01T18:42:10.043Z,96.50
2018-02-01T18:44:37.547Z,96.70
2018-02-01T18:47:05.258Z,96.70
2018-02-01T18:49:32.861Z,96.70
2018-02-01T18:51:59.473Z,96.70
2018-02-01T18:54:26.481Z,97.10
2018-02-01T18:56:52.732Z,97.90
2018-02-01T18:59:19.377Z,96.80
2018-02-01T19:01:46.376Z,97.40
2018-02-01T19:04:12.646Z,97.40
2018-02-01T19:06:38.918Z,96.90
2018-02-01T19:09:05.984Z,97.40
2018-02-01T19:11:33.071Z,96.10
2018-02-01T19:13:59.659Z,96.10
2018-02-01T19:16:25.928Z,96.10
2018-02-01T19:18:52.753Z,97.20
2018-02-01T19:21:20.418Z,96.90
2018-02-01T19:23:47.977Z,97.60
2018-02-01T19:26:15.337Z,97.60
2018-02-01T19:28:43.014Z,96.80
2018-02-01T19:31:09.359Z,96.80
2018-02-01T19:33:36.371Z,96.40
2018-02-01T19:36:03.091Z,96.40
2018-02-01T19:38:29.352Z,97.00
2018-02-01T19:40:56.222Z,98.00
2018-02-01T19:43:23.823Z,96.60
2018-02-01T19:45:50.534Z,97.30
2018-02-01T19:48:18.094Z,96.80
2018-02-01T19:50:45.534Z,97.00
2018-02-01T19:53:11.792Z,97.00
2018-02-01T19:55:39.228Z,97.20
2018-02-01T19:58:06.099Z,97.10
2018-02-01T20:00:32.818Z,96.40
2018-02-01T20:02:59.073Z,96.70
2018-02-01T20:05:25.850Z,97.50
2018-02-01T20:07:52.106Z,96.60
2018-02-01T20:10:18.354Z,96.20
2018-02-01T20:12:44.886Z,96.60
2018-02-01T20:15:11.189Z,96.50
2018-02-01T20:17:38.957Z,97.40
2018-02-01T20:20:05.852Z,97.40
2018-02-01T20:22:32.140Z,97.70
2018-02-01T20:24:59.739Z,97.40
2018-02-01T20:27:26.746Z,97.30
2018-02-01T20:29:54.190Z,98.20
2018-02-01T20:32:22.130Z,97.50
2018-02-01T20:34:49.026Z,97.50
2018-02-01T20:37:16.426Z,97.90
2018-02-01T20:39:43.240Z,97.80
2018-02-01T20:42:10.971Z,97.10
2018-02-01T20:44:37.732Z,97.10
2018-02-01T20:47:05.073Z,96.10
2018-02-01T20:49:31.710Z,96.20
2018-02-01T20:51:58.425Z,95.60
2018-02-01T20:54:25.251Z,96.10
2018-02-01T20:56:52.819Z,97.40
2018-02-01T20:59:20.279Z,97.30
2018-02-01T21:01:47.606Z,96.20
2018-02-01T21:04:14.475Z,96.30
2018-02-01T21:06:41.265Z,96.20
2018-02-01T21:09:07.507Z,96.90
2018-02-01T21:11:33.766Z,96.40
2018-02-01T21:14:00.104Z,96.80
2018-02-01T21:16:26.382Z,96.50
2018-02-01T21:18:53.834Z,97.00
2018-02-01T21:21:20.960Z,96.80
2018-02-01T21:23:48.044Z,96.80
2018-02-01T21:26:15.603Z,96.00
2018-02-01T21:28:42.601Z,95.90
2018-02-01T21:31:09.196Z,95.90
2018-02-01T21:33:36.568Z,94.40
2018-02-01T21:36:03.593Z,96.20
2018-02-01T21:38:31.798Z,96.70
2018-02-01T21:40:59.465Z,96.30
2018-02-01T21:43:26.513Z,96.80
2018-02-01T21:45:53.537Z,95.80
2018-02-01T21:48:21.849Z,95.90
2018-02-01T21:50:48.841Z,95.80
2018-02-01T21:53:15.102Z,95.80
2018-02-01T21:55:41.665Z,96.30
2018-02-01T21:58:08.443Z,95.80
2018-02-01T22:00:35.416Z,94.80
2018-02-01T22:03:01.834Z,95.20
2018-02-01T22:05:28.752Z,95.80
2018-02-01T22:07:56.313Z,95.90
2018-02-01T22:10:22.921Z,95.90
2018-02-01T22:12:49.174Z,97.00
2018-02-01T22:15:15.422Z,96.10
2018-02-01T22:17:41.977Z,97.20
2018-02-01T22:20:09.939Z,97.40
2018-02-01T22:22:37.716Z,97.40
2018-02-01T22:25:05.280Z,96.00
2018-02-01T22:27:32.331Z,95.20
2018-02-01T22:29:59.998Z,96.00
2018-02-01T22:32:27.459Z,96.10
2018-02-01T22:34:54.902Z,96.70
2018-02-01T22:37:21.680Z,96.70
2018-02-01T22:39:49.394Z,95.40
2018-02-01T22:42:16.276Z,95.40
2018-02-01T22:44:43.276Z,95.80
2018-02-01T22:47:09.534Z,95.80
2018-02-01T22:49:50.922Z,96.50
2018-02-01T22:52:17.260Z,96.00
2018-02-01T22:54:44.256Z,94.90
2018-02-01T22:57:10.785Z,95.00
2018-02-01T22:59:37.792Z,95.50
2018-02-01T23:02:04.056Z,95.50
2018-02-01T23:04:30.806Z,94.90
2018-02-01T23:06:57.654Z,95.10
2018-02-01T23:09:24.005Z,95.20
2018-02-01T23:11:50.976Z,96.10
2018-02-01T23:14:17.484Z,96.10
2018-02-01T23:16:44.484Z,95.70
2018-02-01T23:19:11.286Z,95.70
2018-02-01T23:21:38.288Z,93.60
2018-02-01T23:24:05.082Z,93.50
2018-02-01T23:26:31.743Z,94.80
2018-02-01T23:28:58.735Z,94.10
2018-02-01T23:31:25.520Z,94.10
2018-02-01T23:33:52.586Z,94.30
2018-02-01T23:36:20.040Z,94.60
2018-02-01T23:38:47.484Z,93.40
2018-02-01T23:41:15.602Z,92.40
2018-02-01T23:43:41.844Z,92.30
2018-02-01T23:46:08.496Z,94.60
2018-02-01T23:48:34.754Z,95.20
2018-02-01T23:51:00.996Z,94.40
2018-02-01T23:53:27.292Z,93.80
2018-02-01T23:55:53.946Z,94.60
2018-02-01T23:58:20.204Z,94.80
